x

Port Orford - 15 Nm West Of Port Orford, Or (46015) Wave Buoy

3:50pm - Fri 6th Mar 2015 All times are PST. -8 hours from GMT.

  • Sig Wave height 3.9ft
  • Swell Direction
  • Peak Period 15s
  • Average Period 9s
  • Wind
    13mph, 16mph gusts
  • Sea Temp 54°f
  • Air Temp 53°f
  • Sea Pressure 1027.7mb
  • Port Orford - 15 Nm West Of Port Orford, Or
  • Port Orford - 15 Nm West Of Port Orford, Or

More Historic Weather Station data

Upgrade to MSW Pro to gain access to the past 30 days of data for over 8000 Wavebouys and Weather Stations around the globe.

Join Pro

Comparision Forecast

View Surf forecast
   
Fri 03/06 3:50pm 4ft 15s 9s 13 16 mph 1027.7mb 54f 53f
2:50pm 5ft 15s 11s 13 16 mph 1027.7mb 54f 53f
1:50pm 4.5ft 15s 12s 11 13 mph 1028.1mb 54f 52f
12:50pm 4.5ft 15s 11s 9 11 mph 1028.7mb 55f 52f
11:50am 4ft 15s 11s 7 9 mph 1029.2mb 54f 52f
10:50am 4.5ft 15s 11s 7 9 mph 1029.3mb 54f 52f
9:50am 4.5ft 13s 10s 2 4 mph 1029.4mb 54f 52f
8:50am 5ft 15s 11s 4 7 mph 1029mb 54f 51f
7:50am 4ft 13s 10s 4 7 mph 1028.5mb 54f 51f
6:50am 4.5ft 15s 11s 4
mph
1028.1mb 54f 51f
5:50am 4.5ft 16s 10s 4 7 mph 1027.9mb 54f 52f
4:50am 4.5ft 15s 10s 7 9 mph 1027.6mb 54f 52f
3:50am 4ft 15s 9s 7 9 mph 1027.6mb 54f 52f
2:50am 5ft 15s 10s 7 9 mph 1027.7mb 54f 52f
1:50am 4.5ft 15s 10s 7 9 mph 1028mb 54f 52f
12:50am 5ft 16s 10s 7 9 mph 1027.8mb 54f 52f
Thu 03/05 11:50pm 4.5ft 16s 9s 7 9 mph 1027.9mb 54f 53f
10:50pm 4.5ft 16s 10s 9 11 mph 1028mb 54f 53f
9:50pm 5ft 16s 10s 9
mph
1028mb 54f 53f
8:50pm 4.5ft 16s 9s 7 9 mph 1027.7mb 54f 53f
7:50pm 4.5ft 15s 9s 4
mph
1027.6mb 54f 53f
6:50pm 4.5ft 16s 9s 4
mph
1027.2mb 54f 54f
5:50pm 4.5ft 16s 9s 4 7 mph 1026.8mb 54f 54f
4:50pm 4.5ft 16s 9s 2 4 mph 1026.6mb 55f 54f
3:50pm 4.5ft 16s  -  4 7 mph 1026.8mb 54f 54f
2:50pm 4ft 16s 8s 4
mph
1027mb 55f 55f
1:50pm 4.5ft 16s 8s 2 4 mph 1027.1mb 55f 54f
12:50pm 4.5ft 16s 8s 2
mph
1027.5mb 54f 54f
11:50am 4.5ft 16s 8s 4 7 mph 1027.5mb 54f 53f
10:50am 4.5ft 16s 8s 4 7 mph 1027.4mb 54f 53f
9:50am 4.5ft 16s 7s 2 4 mph 1027.3mb 54f 53f
8:50am 5ft 17s 7s  -  2 mph 1027mb 53f 53f
7:50am 4.5ft 17s 6s 2
mph
1026.4mb 53f 51f
6:50am 4.5ft 16s 6s 4 7 mph 1025.6mb 53f 51f
5:50am 5ft 16s 6s 7
mph
1025.2mb 53f 51f
4:50am 4.5ft 16s 6s 9
mph
1025mb 53f 51f
3:50am 4.5ft 17s 6s 11
mph
1024.6mb 53f 51f
2:50am 5ft 17s 6s 13 16 mph 1024.5mb 53f 51f
1:50am 5ft 17s 6s 13
mph
1024.3mb 53f 52f
12:50am 5.5ft 17s 5s 13 16 mph 1023.9mb 53f 53f
Wed 03/04 11:50pm 5ft 7s 5s 20 22 mph 1023.8mb 53f 53f
10:50pm 6ft 17s 5s 20 25 mph 1023.9mb 53f 53f
9:50pm 5.5ft 17s 5s 20 25 mph 1023.5mb 53f 53f
8:50pm 5.5ft 17s 5s 22 27 mph 1023.2mb 53f 53f
7:50pm 5ft 6s 5s 22 25 mph 1022.9mb 53f 53f
6:50pm 5.5ft 5s 5s 22 27 mph 1022.8mb 53f 53f
5:50pm 5.5ft 5s 5s 22 29 mph 1022.3mb 53f 53f
4:50pm 6ft 5s 5s 25 27 mph 1022.2mb 53f 53f
3:50pm 5.5ft 11s 5s 25 29 mph 1022mb 53f 53f
2:50pm 5ft 5s 5s 27 29 mph 1021.8mb 53f 52f
1:50pm 5.5ft 11s 5s 27 31 mph 1021.8mb 53f 52f
12:50pm 5.5ft 5s 5s 27 31 mph 1022.1mb 53f 51f
11:50am 6ft 5s 5s 25 29 mph 1022.2mb 53f 51f
10:50am 5.5ft 12s 5s 25 29 mph 1022.2mb 53f 50f
9:50am 5.5ft 8s 5s 25 29 mph 1022.4mb 53f 50f
8:50am 6ft 19s 5s 25 29 mph 1022mb 53f 49f
7:50am 6ft 6s 5s 27 29 mph 1021.4mb 53f 49f
6:50am 6ft 6s 5s 25 29 mph 1020.9mb 53f 50f
5:50am 6ft 7s 5s 25 29 mph 1020.9mb 53f 51f
4:50am 6ft 6s 5s 25 29 mph 1020.6mb 53f 51f
3:50am 6ft 8s 5s 22 27 mph 1020.8mb 53f 51f
2:50am 6.5ft 6s 5s 20 25 mph 1021mb 53f 50f
1:50am 7ft 6s 5s 25 29 mph 1020.9mb 53f 51f
12:50am 6.5ft 6s 5s 25 29 mph 1020.9mb 53f 52f
Tue 03/03 11:50pm 7ft 6s 5s 25 27 mph 1020.8mb 53f 52f
10:50pm 7ft 7s 5s 27 29 mph 1020.5mb 53f 52f
9:50pm 7ft 9s 5s 27 29 mph 1020.6mb 53f 52f
8:50pm 7ft 9s 5s 25 29 mph 1020.4mb 53f 52f
7:50pm 6.5ft 8s 5s 25 27 mph 1020.5mb 53f 51f
6:50pm 6ft 9s 5s 25 29 mph 1020.2mb 53f 51f
5:50pm 6ft 9s 5s 22 29 mph 1020.1mb 53f 51f
4:50pm 5.5ft 9s 5s 22 27 mph 1020.4mb 53f 51f
3:50pm 6ft 8s 6s 25 27 mph 1020.6mb 53f 51f
2:50pm 6ft 9s 6s 20 25 mph 1020.8mb 53f 51f
1:50pm 5.5ft 9s 6s 20 25 mph 1021mb 53f 51f
12:50pm 6ft 9s 6s 20 22 mph 1021.6mb 53f 51f
11:50am 6ft 9s 6s 16 20 mph 1022.2mb 53f 51f
10:50am 6.5ft 9s 6s 16 18 mph 1022.2mb 53f 50f
9:50am 7ft 9s 6s 16 18 mph 1022.1mb 53f 50f
8:50am 6.5ft 9s 6s 16 18 mph 1021.9mb 53f 50f
7:50am 7ft 8s 6s 16 18 mph 1021.6mb 53f 49f
6:50am 7ft 8s 6s 16 20 mph 1021.1mb 53f 49f
5:50am 8ft 8s 6s 18 22 mph 1021mb 53f 50f
4:50am 7.5ft 10s 6s 18 20 mph 1020.6mb 53f 51f
3:50am 8ft 9s 6s 18 22 mph 1020.3mb 53f 51f
2:50am 8ft 10s 6s 16 18 mph 1020.5mb 53f 50f
1:50am 8ft 9s 6s 16 18 mph 1020.4mb 53f 50f